Time;durP1;ratioP1;P1;durP2;ratioP2;P2;SDS_P1;SDS_P2;PMS_P1;PMS_P2;Temp;Humidity;BMP_temperature;BMP_pressure;BME280_temperature;BME280_humidity;BME280_pressure;Samples;Min_cycle;Max_cycle;Signal;HPM_P1;HPM_P2
2022/02/05 00:05:20;;;;;;;124.32;67.30;;;4.10;99.90;;;;;;4995404;28;20198;-89
2022/02/05 00:08:09;;;;;;;132.13;73.30;;;4.10;99.90;;;;;;4994071;28;20349;-88
2022/02/05 00:11:04;;;;;;;131.70;74.07;;;4.10;99.90;;;;;;4994724;28;20328;-89
2022/02/05 00:16:10;;;;;;;120.07;69.47;;;4.10;99.90;;;;;;5000552;28;20215;-88
2022/02/05 00:43:04;;;;;;;145.70;75.45;;;3.70;99.90;;;;;;4998701;28;20601;-89
2022/02/05 00:45:34;;;;;;;164.60;80.70;;;3.70;99.90;;;;;;4998406;28;20188;-88
2022/02/05 00:48:01;;;;;;;134.65;73.88;;;3.60;99.90;;;;;;4997234;28;20176;-89
2022/02/05 00:50:29;;;;;;;127.90;70.38;;;3.60;99.90;;;;;;4997812;28;20196;-89
2022/02/05 00:53:25;;;;;;;129.63;72.78;;;3.60;99.90;;;;;;4997548;28;20180;-89
2022/02/05 00:55:49;;;;;;;118.18;69.00;;;3.60;99.90;;;;;;4997922;28;20223;-88
2022/02/05 00:58:15;;;;;;;126.82;71.72;;;3.60;99.90;;;;;;4997877;28;20191;-88
2022/02/05 01:00:41;;;;;;;123.33;68.07;;;3.50;99.90;;;;;;4997538;28;20226;-88
2022/02/05 01:03:06;;;;;;;135.80;72.37;;;3.40;99.90;;;;;;4997050;28;20180;-89
2022/02/05 01:05:35;;;;;;;120.30;68.90;;;3.40;99.90;;;;;;4997234;28;20200;-89
2022/02/05 01:08:01;;;;;;;119.05;69.50;;;3.40;99.90;;;;;;4997276;28;20175;-89
2022/02/05 01:10:27;;;;;;;128.57;69.67;;;3.30;99.90;;;;;;4996945;28;20246;-88
2022/02/05 01:13:02;;;;;;;126.20;69.32;;;3.30;99.90;;;;;;4997945;28;20836;-88
2022/02/05 01:15:35;;;;;;;119.90;67.22;;;3.30;99.90;;;;;;4997235;28;20742;-89
2022/02/05 01:18:04;;;;;;;120.82;68.10;;;3.30;99.90;;;;;;4996579;28;20271;-89
2022/02/05 01:23:22;;;;;;;124.00;67.65;;;3.30;99.90;;;;;;4987479;28;20191;-89
2022/02/05 01:25:56;;;;;;;124.70;67.03;;;3.40;99.90;;;;;;5008711;28;20235;-88
2022/02/05 01:28:28;;;;;;;117.88;66.88;;;3.40;99.90;;;;;;4997350;28;20218;-88
2022/02/05 01:30:56;;;;;;;115.68;66.45;;;3.40;99.90;;;;;;5012338;28;20206;-88
2022/02/05 01:52:26;;;;;;;143.52;74.82;;;3.40;99.90;;;;;;4997648;28;20180;-89
2022/02/05 02:06:06;;;;;;;161.80;79.03;;;3.60;99.90;;;;;;4997128;28;20228;-88
2022/02/05 02:16:52;;;;;;;139.57;72.10;;;3.70;99.90;;;;;;4997131;28;20336;-88
2022/02/05 02:19:29;;;;;;;131.48;70.60;;;3.70;99.90;;;;;;5000945;28;20242;-88
2022/02/05 02:24:42;;;;;;;126.53;73.85;;;3.60;99.90;;;;;;4997571;28;20560;-89
2022/02/05 02:27:25;;;;;;;138.80;76.68;;;3.70;99.90;;;;;;4995498;28;20234;-89
2022/02/05 02:32:20;;;;;;;140.30;74.72;;;3.70;99.90;;;;;;4996712;28;20175;-89
2022/02/05 02:34:51;;;;;;;127.15;69.82;;;3.70;99.90;;;;;;4996731;28;20759;-88
2022/02/05 02:37:22;;;;;;;133.70;72.15;;;3.70;99.90;;;;;;4996160;28;20267;-88
2022/02/05 02:42:17;;;;;;;117.55;68.78;;;3.70;99.90;;;;;;5001536;28;20763;-89
2022/02/05 02:44:43;;;;;;;118.47;66.20;;;3.70;99.90;;;;;;4994905;28;20212;-88
2022/02/05 02:47:09;;;;;;;114.10;67.70;;;3.70;99.90;;;;;;4995310;28;20195;-88
2022/02/05 02:49:48;;;;;;;113.30;61.47;;;3.70;99.90;;;;;;4995368;28;20661;-88
2022/02/05 02:57:59;;;;;;;119.43;62.78;;;3.60;99.90;;;;;;4987912;28;20187;-89
2022/02/05 03:00:26;;;;;;;129.38;69.18;;;3.60;99.90;;;;;;4995351;28;20203;-89
2022/02/05 03:02:52;;;;;;;117.20;65.40;;;3.60;99.90;;;;;;4995080;28;20255;-88
2022/02/05 03:05:18;;;;;;;120.20;69.22;;;3.60;99.90;;;;;;4995024;28;20204;-89
2022/02/05 03:07:44;;;;;;;121.70;63.80;;;3.60;99.90;;;;;;4995295;28;20202;-89
2022/02/05 03:10:10;;;;;;;109.97;63.22;;;3.60;99.90;;;;;;4994626;28;20231;-89
2022/02/05 03:12:35;;;;;;;112.73;63.10;;;3.60;99.90;;;;;;4995729;28;20203;-89
2022/02/05 03:15:04;;;;;;;112.43;60.42;;;3.70;99.90;;;;;;5003403;28;20596;-89
2022/02/05 03:17:38;;;;;;;106.10;59.20;;;3.70;99.90;;;;;;4996435;28;20172;-89
2022/02/05 03:20:05;;;;;;;113.63;60.80;;;3.80;99.90;;;;;;4994687;28;20223;-89
2022/02/05 03:22:30;;;;;;;103.88;57.50;;;3.80;99.90;;;;;;4994920;28;20180;-89
2022/02/05 03:24:56;;;;;;;100.80;59.57;;;3.90;99.90;;;;;;4994528;28;20269;-89
2022/02/05 03:27:22;;;;;;;106.40;60.13;;;3.90;99.90;;;;;;4994820;28;20182;-89
2022/02/05 03:29:50;;;;;;;102.72;60.17;;;4.00;99.90;;;;;;4994595;28;20575;-89
2022/02/05 03:32:18;;;;;;;94.43;56.60;;;4.00;99.90;;;;;;4994703;28;20179;-89
2022/02/05 03:34:44;;;;;;;96.15;56.22;;;4.00;99.90;;;;;;4994215;28;20311;-89
2022/02/05 03:37:10;;;;;;;101.60;58.03;;;4.00;99.90;;;;;;4994519;28;20199;-89
2022/02/05 03:39:36;;;;;;;107.35;57.88;;;4.00;99.90;;;;;;4997016;28;20464;-89
2022/02/05 03:42:02;;;;;;;96.50;54.47;;;3.90;99.90;;;;;;4994173;28;20274;-89
2022/02/05 03:44:28;;;;;;;108.80;59.08;;;3.90;99.90;;;;;;4994251;28;20434;-89
2022/02/05 03:46:55;;;;;;;96.43;57.70;;;3.80;99.90;;;;;;4994424;28;20219;-89
2022/02/05 03:49:22;;;;;;;95.03;55.38;;;3.80;99.90;;;;;;4994420;28;20404;-89
2022/02/05 03:51:49;;;;;;;97.97;57.45;;;3.80;99.90;;;;;;4995613;28;20179;-89
2022/02/05 03:54:18;;;;;;;99.40;54.80;;;3.80;99.90;;;;;;4994305;28;20274;-89
2022/02/05 03:56:43;;;;;;;87.07;51.50;;;3.80;99.90;;;;;;4994251;28;20215;-89
2022/02/05 03:59:09;;;;;;;100.00;56.77;;;3.80;99.90;;;;;;4994214;28;20202;-89
2022/02/05 04:01:35;;;;;;;89.00;52.73;;;3.90;99.90;;;;;;4994066;28;20199;-88
2022/02/05 04:04:00;;;;;;;91.40;53.90;;;3.90;99.90;;;;;;4994129;28;20183;-89
2022/02/05 04:06:26;;;;;;;94.13;53.27;;;3.90;99.90;;;;;;4996159;28;20211;-89
2022/02/05 04:08:55;;;;;;;656.40;248.73;;;3.80;99.90;;;;;;5009561;28;20439;-88
2022/02/05 04:16:40;;;;;;;410.30;182.07;;;3.70;99.90;;;;;;4998990;28;20217;-89
2022/02/05 04:19:06;;;;;;;185.87;114.17;;;3.80;99.90;;;;;;4998062;28;20247;-89
2022/02/05 04:21:33;;;;;;;93.03;55.53;;;3.80;99.90;;;;;;4998145;28;20564;-89
2022/02/05 04:24:01;;;;;;;71.93;44.92;;;3.90;99.90;;;;;;5000411;28;20428;-89
2022/02/05 04:26:28;;;;;;;69.32;43.53;;;3.90;99.90;;;;;;4999585;28;20204;-89
2022/02/05 04:28:54;;;;;;;71.57;43.65;;;4.00;99.90;;;;;;5000597;28;20191;-89
2022/02/05 04:31:20;;;;;;;74.38;43.00;;;4.00;99.90;;;;;;4997950;28;20209;-89
2022/02/05 04:33:46;;;;;;;63.73;40.33;;;4.10;99.90;;;;;;4997610;28;20219;-89
2022/02/05 04:36:13;;;;;;;63.50;41.30;;;4.10;99.90;;;;;;4997703;28;20296;-89
2022/02/05 04:38:42;;;;;;;61.55;40.30;;;4.20;99.90;;;;;;4997797;28;20425;-89
2022/02/05 04:44:13;;;;;;;52.00;36.92;;;4.30;99.90;;;;;;4998976;28;20231;-89
2022/02/05 04:52:18;;;;;;;52.10;35.65;;;4.40;99.90;;;;;;4998734;28;20182;-90
2022/02/05 05:02:30;;;;;;;44.58;29.80;;;4.50;99.90;;;;;;4999692;28;20172;-89
2022/02/05 05:05:26;;;;;;;49.90;30.23;;;4.50;99.90;;;;;;5017945;28;20192;-89
2022/02/05 05:07:52;;;;;;;42.38;28.60;;;4.50;99.90;;;;;;4998162;28;20192;-89
2022/02/05 05:19:12;;;;;;;45.17;30.05;;;4.70;99.90;;;;;;4998766;28;20282;-89
2022/02/05 05:21:02;;;;;;;37.03;27.67;;;4.70;99.90;;;;;;4998002;28;20278;-89
2022/02/05 05:23:28;;;;;;;39.70;26.43;;;4.80;99.90;;;;;;4996606;28;20207;-89
2022/02/05 05:25:54;;;;;;;42.07;27.30;;;4.80;99.90;;;;;;4996928;28;20250;-89
2022/02/05 05:28:19;;;;;;;39.20;25.27;;;4.80;99.90;;;;;;4997033;28;20191;-88
2022/02/05 05:30:45;;;;;;;35.57;25.10;;;4.80;99.90;;;;;;4996811;28;20661;-89
2022/02/05 05:33:14;;;;;;;37.93;25.30;;;4.80;99.90;;;;;;4996530;28;20432;-89
2022/02/05 05:35:40;;;;;;;36.33;25.60;;;4.90;99.90;;;;;;4996406;28;20477;-89
2022/02/05 05:38:06;;;;;;;51.47;30.58;;;4.90;99.90;;;;;;4996897;28;20605;-89
2022/02/05 05:40:32;;;;;;;61.28;36.30;;;4.90;99.90;;;;;;5005932;28;20199;-87
2022/02/05 05:43:04;;;;;;;55.73;34.13;;;4.90;99.90;;;;;;5014631;28;20249;-89
2022/02/05 05:45:50;;;;;;;63.38;34.30;;;4.90;99.90;;;;;;5004811;28;20221;-89
2022/02/05 05:48:16;;;;;;;42.20;25.73;;;5.00;99.90;;;;;;5002335;28;20246;-88
2022/02/05 05:53:12;;;;;;;36.08;23.92;;;5.00;99.90;;;;;;4998522;28;20172;-89
2022/02/05 05:55:48;;;;;;;30.05;21.85;;;5.00;99.90;;;;;;4998437;28;20223;-89
2022/02/05 05:58:15;;;;;;;29.10;22.48;;;5.00;99.90;;;;;;4997297;28;20288;-89
2022/02/05 06:00:42;;;;;;;36.15;23.90;;;5.10;99.90;;;;;;4996081;28;20211;-89
2022/02/05 06:03:08;;;;;;;35.47;23.30;;;5.10;99.90;;;;;;4996155;28;20279;-89
2022/02/05 06:05:33;;;;;;;35.03;21.92;;;5.10;99.90;;;;;;4996258;28;20204;-89
2022/02/05 06:07:59;;;;;;;88.97;40.00;;;5.10;99.90;;;;;;4996084;28;20645;-89
2022/02/05 06:10:25;;;;;;;93.53;44.73;;;5.10;99.90;;;;;;4995919;28;20708;-89
2022/02/05 06:12:51;;;;;;;101.70;50.20;;;5.20;99.90;;;;;;4996139;28;20179;-89
2022/02/05 06:15:17;;;;;;;42.77;27.83;;;5.20;99.90;;;;;;4995702;28;20481;-89
2022/02/05 06:17:43;;;;;;;35.97;21.38;;;5.30;99.90;;;;;;4996033;28;20242;-89
2022/02/05 06:20:09;;;;;;;32.13;22.33;;;5.30;99.90;;;;;;4995795;28;20196;-89
2022/02/05 06:22:37;;;;;;;42.42;27.73;;;5.40;99.90;;;;;;4996529;28;20380;-90
2022/02/05 06:25:03;;;;;;;44.05;31.25;;;5.40;99.90;;;;;;5003289;28;20200;-89
2022/02/05 06:27:29;;;;;;;30.90;20.60;;;5.50;99.90;;;;;;4997024;28;20191;-90
2022/02/05 06:29:55;;;;;;;30.37;22.30;;;5.50;99.90;;;;;;4995107;28;20199;-89
2022/02/05 06:32:21;;;;;;;29.40;21.30;;;5.60;99.90;;;;;;4995766;28;20176;-89
2022/02/05 06:34:47;;;;;;;31.10;21.73;;;5.60;99.90;;;;;;4996333;28;20429;-89
2022/02/05 06:37:13;;;;;;;30.00;21.20;;;5.70;99.90;;;;;;4995521;28;20936;-89
2022/02/05 06:39:39;;;;;;;30.05;21.25;;;5.80;99.90;;;;;;4995549;28;20427;-88
2022/02/05 06:42:05;;;;;;;28.67;20.60;;;5.80;99.90;;;;;;4996873;28;20177;-89
2022/02/05 06:44:31;;;;;;;35.92;21.95;;;5.90;99.90;;;;;;4995467;28;20179;-89
2022/02/05 06:46:57;;;;;;;27.87;19.90;;;5.90;99.90;;;;;;4995315;28;20219;-89
2022/02/05 06:49:26;;;;;;;30.57;20.73;;;6.00;99.90;;;;;;4995172;28;20637;-89
2022/02/05 06:51:52;;;;;;;32.70;21.58;;;6.10;99.90;;;;;;4995162;28;20422;-89
2022/02/05 06:54:18;;;;;;;30.40;20.95;;;6.10;99.90;;;;;;4995339;28;20222;-88
2022/02/05 06:56:44;;;;;;;37.70;25.93;;;6.10;99.90;;;;;;4996205;28;20228;-88
2022/02/05 06:59:10;;;;;;;67.13;37.40;;;6.10;99.90;;;;;;4995406;28;20468;-89
2022/02/05 07:01:35;;;;;;;77.07;44.53;;;6.20;99.90;;;;;;5000061;28;20253;-89
2022/02/05 07:04:01;;;;;;;235.10;126.53;;;6.20;99.90;;;;;;4996467;28;20176;-89
2022/02/05 07:06:27;;;;;;;49.27;32.13;;;6.20;99.90;;;;;;4999467;28;20215;-88
2022/02/05 07:08:55;;;;;;;36.57;26.10;;;6.20;99.90;;;;;;5005555;28;20740;-88
2022/02/05 07:11:21;;;;;;;24.50;20.25;;;6.30;99.90;;;;;;4994705;28;20207;-89
2022/02/05 07:13:49;;;;;;;29.23;22.02;;;6.40;99.90;;;;;;4995864;28;20188;-88
2022/02/05 07:16:22;;;;;;;31.00;22.23;;;6.40;99.90;;;;;;4995697;28;20262;-88
2022/02/05 07:19:32;;;;;;;32.10;20.85;;;6.50;99.90;;;;;;4998205;28;20250;-89
2022/02/05 07:21:46;;;;;;;30.60;22.30;;;6.60;99.90;;;;;;4998195;28;20218;-89
2022/02/05 07:29:27;;;;;;;28.80;20.25;;;6.80;99.90;;;;;;4994215;28;20226;-89
2022/02/05 07:31:56;;;;;;;26.97;19.87;;;6.90;99.90;;;;;;4994926;28;20180;-89
2022/02/05 07:34:25;;;;;;;27.23;20.10;;;6.90;99.90;;;;;;4994588;28;20187;-89
2022/02/05 07:36:51;;;;;;;31.25;20.10;;;7.00;99.90;;;;;;4992612;28;20318;-89
2022/02/05 07:39:17;;;;;;;32.83;21.10;;;7.10;99.90;;;;;;4992474;28;20184;-89
2022/02/05 07:41:44;;;;;;;30.58;21.20;;;7.20;99.90;;;;;;4991928;28;20187;-89
2022/02/05 07:44:13;;;;;;;27.38;20.13;;;7.30;99.90;;;;;;4992209;28;20215;-88
2022/02/05 07:46:43;;;;;;;30.80;20.88;;;7.30;99.90;;;;;;4992402;28;20673;-89
2022/02/05 07:49:08;;;;;;;29.08;20.58;;;7.40;99.90;;;;;;4992835;28;20552;-88
2022/02/05 07:51:34;;;;;;;25.13;19.20;;;7.40;99.90;;;;;;4994075;28;20207;-89
2022/02/05 07:54:00;;;;;;;31.40;20.70;;;7.50;99.90;;;;;;4993540;28;20180;-88
2022/02/05 07:56:27;;;;;;;27.47;19.50;;;7.50;99.90;;;;;;5004744;28;20220;-88
2022/02/05 07:58:53;;;;;;;25.63;19.08;;;7.80;99.90;;;;;;4993865;28;20645;-89
2022/02/05 08:01:18;;;;;;;22.30;17.13;;;8.40;99.90;;;;;;4994281;28;20222;-89
2022/02/05 08:03:48;;;;;;;18.73;15.77;;;9.10;99.90;;;;;;4996895;28;20172;-90
2022/02/05 08:06:16;;;;;;;18.67;14.48;;;10.00;99.90;;;;;;4994206;28;20210;-88
2022/02/05 08:08:44;;;;;;;19.38;13.70;;;11.00;99.90;;;;;;4995214;28;20252;-89
2022/02/05 08:11:13;;;;;;;16.30;12.82;;;12.10;99.90;;;;;;4995316;28;20290;-89
2022/02/05 08:13:38;;;;;;;14.57;12.50;;;13.10;99.90;;;;;;4993438;28;20210;-89
2022/02/05 08:18:48;;;;;;;17.58;12.30;;;13.50;99.90;;;;;;4995006;28;20171;-90
2022/02/05 08:21:14;;;;;;;18.35;13.25;;;13.20;99.90;;;;;;5000027;28;20230;-89
2022/02/05 08:23:40;;;;;;;20.13;14.50;;;12.80;99.90;;;;;;4993889;28;20183;-89
2022/02/05 08:26:06;;;;;;;17.07;14.13;;;12.40;99.90;;;;;;4993164;28;20735;-89
2022/02/05 08:28:36;;;;;;;14.97;12.20;;;12.00;99.90;;;;;;4994396;28;20509;-89
2022/02/05 08:31:01;;;;;;;14.57;12.30;;;11.70;99.90;;;;;;4993828;28;20556;-90
2022/02/05 08:33:27;;;;;;;17.47;13.63;;;11.50;99.90;;;;;;4994018;28;20604;-89
2022/02/05 08:35:53;;;;;;;13.60;11.90;;;11.30;99.90;;;;;;4993335;28;20879;-89
2022/02/05 08:38:19;;;;;;;18.70;13.27;;;11.20;99.90;;;;;;4993631;28;20180;-90
2022/02/05 08:40:45;;;;;;;15.00;12.73;;;11.00;99.90;;;;;;4993170;28;20822;-89
2022/02/05 08:43:12;;;;;;;17.73;12.60;;;11.00;99.90;;;;;;5001542;28;20203;-89
2022/02/05 08:45:39;;;;;;;17.58;12.52;;;11.00;99.90;;;;;;4993929;28;20207;-88
2022/02/05 08:48:06;;;;;;;16.55;12.52;;;11.20;99.90;;;;;;4993691;28;20210;-90
2022/02/05 08:50:31;;;;;;;18.00;13.63;;;11.40;99.90;;;;;;4992838;28;20208;-89
2022/02/05 08:52:57;;;;;;;15.20;12.80;;;12.00;99.90;;;;;;4992901;28;20182;-89
2022/02/05 08:55:23;;;;;;;14.40;12.70;;;12.70;99.90;;;;;;5004101;28;20815;-89
2022/02/05 08:57:52;;;;;;;17.63;13.90;;;13.10;99.90;;;;;;4999135;28;20409;-89
2022/02/05 09:00:23;;;;;;;13.32;11.93;;;13.30;99.90;;;;;;4997200;28;20447;-89
2022/02/05 09:02:57;;;;;;;15.80;12.45;;;13.20;99.90;;;;;;4996841;28;20207;-89
2022/02/05 09:05:41;;;;;;;14.27;12.07;;;13.00;99.90;;;;;;5003268;28;20215;-89
2022/02/05 09:08:21;;;;;;;18.08;13.10;;;12.70;99.90;;;;;;4998901;28;20409;-89
2022/02/05 09:10:58;;;;;;;16.65;12.68;;;12.40;99.90;;;;;;4996996;28;20211;-89
2022/02/05 09:16:13;;;;;;;15.63;12.07;;;11.80;99.90;;;;;;4997668;28;20281;-89
2022/02/05 09:18:41;;;;;;;16.33;12.38;;;11.60;99.90;;;;;;5003339;28;20272;-89
2022/02/05 09:21:07;;;;;;;15.27;12.45;;;11.40;99.90;;;;;;4996749;28;20218;-89
2022/02/05 09:23:38;;;;;;;16.83;12.10;;;11.30;99.90;;;;;;4998604;28;20187;-90
2022/02/05 09:26:04;;;;;;;19.98;13.30;;;11.20;99.90;;;;;;4996959;28;20592;-89
2022/02/05 09:28:30;;;;;;;13.98;11.32;;;11.10;99.90;;;;;;5001786;28;20172;-89
2022/02/05 09:33:28;;;;;;;14.68;10.85;;;10.90;99.90;;;;;;4997547;28;20168;-89
2022/02/05 09:35:54;;;;;;;15.05;11.38;;;10.90;99.90;;;;;;4996224;28;20231;-89
2022/02/05 09:38:20;;;;;;;13.30;10.13;;;10.80;99.90;;;;;;4996639;28;20520;-90
2022/02/05 09:40:46;;;;;;;13.90;9.63;;;10.80;99.90;;;;;;5004090;28;20457;-90
2022/02/05 09:43:13;;;;;;;13.83;10.67;;;10.80;99.90;;;;;;5009029;28;20183;-90
2022/02/05 09:45:39;;;;;;;15.52;10.68;;;10.80;99.90;;;;;;4997267;28;20204;-90
2022/02/05 09:48:07;;;;;;;10.27;8.88;;;10.80;99.90;;;;;;4997456;28;20168;-90
2022/02/05 09:50:33;;;;;;;10.82;8.88;;;10.80;99.90;;;;;;5001986;28;20216;-90
2022/02/05 09:53:13;;;;;;;13.07;9.25;;;10.80;99.90;;;;;;4996308;28;20226;-90
2022/02/05 09:55:38;;;;;;;12.18;8.60;;;10.80;99.90;;;;;;4995856;28;20692;-90
2022/02/05 09:58:04;;;;;;;11.33;8.90;;;10.80;99.90;;;;;;4999669;28;20180;-89
2022/02/05 10:00:31;;;;;;;10.87;7.97;;;10.80;99.90;;;;;;4996286;28;20503;-90
2022/02/05 10:02:59;;;;;;;9.80;7.18;;;10.90;99.90;;;;;;4999918;28;20401;-90
2022/02/05 10:05:31;;;;;;;10.52;9.43;;;10.90;99.90;;;;;;4994462;28;20286;-90
2022/02/05 10:08:10;;;;;;;7.88;6.90;;;11.00;99.90;;;;;;4997843;28;20196;-90
2022/02/05 10:10:46;;;;;;;11.50;7.03;;;11.10;99.90;;;;;;4995289;28;20306;-90
2022/02/05 10:13:19;;;;;;;6.18;5.50;;;11.10;99.90;;;;;;5000273;28;20270;-90
2022/02/05 10:15:51;;;;;;;7.70;5.45;;;11.20;99.90;;;;;;4995126;28;20227;-90
2022/02/05 10:18:38;;;;;;;10.95;5.15;;;11.20;99.90;;;;;;4995820;28;20180;-90
2022/02/05 10:21:21;;;;;;;8.80;5.57;;;11.30;99.90;;;;;;4995924;28;20211;-90
2022/02/05 10:24:01;;;;;;;9.55;5.95;;;11.30;99.90;;;;;;5001890;28;20258;-88
2022/02/05 10:26:29;;;;;;;7.65;5.82;;;11.40;99.90;;;;;;4995847;28;20668;-90
2022/02/05 10:29:00;;;;;;;6.50;5.80;;;11.50;99.90;;;;;;4996481;28;20230;-90
2022/02/05 10:31:30;;;;;;;8.57;6.53;;;11.60;99.90;;;;;;4995532;28;20208;-90
2022/02/05 10:34:07;;;;;;;7.38;5.80;;;11.60;99.90;;;;;;4995297;28;20521;-90
2022/02/05 10:36:33;;;;;;;8.30;5.95;;;11.80;99.90;;;;;;4995689;28;20239;-90
2022/02/05 10:39:52;;;;;;;8.77;6.20;;;11.80;99.90;;;;;;5001256;28;20221;-89
2022/02/05 10:44:36;;;;;;;7.40;6.53;;;11.90;99.90;;;;;;4996534;28;20207;-90
2022/02/05 10:47:03;;;;;;;8.53;6.27;;;11.80;99.90;;;;;;4995162;28;20188;-89
2022/02/05 10:49:38;;;;;;;10.45;6.78;;;11.70;99.90;;;;;;4995021;28;20421;-90
2022/02/05 10:52:04;;;;;;;8.90;5.90;;;11.60;99.90;;;;;;4995318;28;20195;-90
2022/02/05 10:54:46;;;;;;;6.78;5.57;;;11.50;99.90;;;;;;4997150;28;20263;-89
2022/02/05 10:57:24;;;;;;;8.55;5.60;;;11.40;99.90;;;;;;4995018;28;20247;-90
2022/02/05 11:05:11;;;;;;;6.25;5.20;;;11.20;99.90;;;;;;4994676;28;20201;-90
2022/02/05 11:08:01;;;;;;;9.00;5.95;;;11.00;99.90;;;;;;4996200;28;20163;-90
2022/02/05 11:16:26;;;;;;;6.43;5.20;;;10.90;99.90;;;;;;5001844;28;20240;-90
2022/02/05 11:21:26;;;;;;;5.18;4.65;;;10.90;99.90;;;;;;4996187;28;20200;-91
2022/02/05 11:23:56;;;;;;;9.50;6.18;;;10.90;99.90;;;;;;4994390;28;20644;-90
2022/02/05 11:26:23;;;;;;;6.97;5.63;;;10.90;99.90;;;;;;4994610;28;20250;-90
2022/02/05 11:28:51;;;;;;;8.88;6.47;;;10.90;99.90;;;;;;4994873;28;20187;-90
2022/02/05 11:31:29;;;;;;;5.85;4.97;;;10.80;99.90;;;;;;4997232;28;20204;-90
2022/02/05 11:34:13;;;;;;;5.93;4.80;;;10.90;99.90;;;;;;4995070;28;20546;-90
2022/02/05 11:36:44;;;;;;;6.05;4.45;;;10.80;99.90;;;;;;4994466;28;20227;-89
2022/02/05 11:39:16;;;;;;;6.60;4.25;;;10.80;99.90;;;;;;4994540;28;20540;-90
2022/02/05 11:41:44;;;;;;;5.70;3.83;;;10.70;99.90;;;;;;4995851;28;20517;-90
2022/02/05 11:44:20;;;;;;;4.63;3.08;;;10.70;99.90;;;;;;4994634;28;20619;-90
2022/02/05 11:47:12;;;;;;;3.40;3.10;;;10.70;99.90;;;;;;4995702;28;20267;-89
2022/02/05 11:49:53;;;;;;;3.63;2.80;;;10.60;99.90;;;;;;4979323;28;20301;-89
2022/02/05 11:52:42;;;;;;;3.17;2.15;;;10.60;99.90;;;;;;4994362;28;20215;-89
2022/02/05 11:55:14;;;;;;;3.22;2.83;;;10.50;99.90;;;;;;4994518;28;20226;-89
2022/02/05 11:58:05;;;;;;;3.60;3.20;;;10.50;99.90;;;;;;4994240;28;20271;-89
2022/02/05 12:00:35;;;;;;;3.70;2.60;;;10.40;99.90;;;;;;4994746;28;20204;-90
2022/02/05 12:03:24;;;;;;;7.03;2.55;;;10.40;99.90;;;;;;5000424;28;20176;-89
2022/02/05 12:05:54;;;;;;;2.90;2.30;;;10.40;99.90;;;;;;5008903;28;20191;-90
2022/02/05 12:08:33;;;;;;;2.53;2.03;;;10.40;99.90;;;;;;4994105;28;20274;-89
2022/02/05 12:11:01;;;;;;;7.20;1.80;;;10.40;99.90;;;;;;4994154;28;20199;-90
2022/02/05 12:13:34;;;;;;;2.22;2.03;;;10.30;99.90;;;;;;4994289;28;20180;-90
2022/02/05 12:16:05;;;;;;;2.72;1.90;;;10.30;99.90;;;;;;4993762;28;20696;-90
2022/02/05 12:18:32;;;;;;;2.50;1.77;;;10.30;99.90;;;;;;4993696;28;20563;-90
2022/02/05 12:24:14;;;;;;;4.10;3.38;;;10.30;99.90;;;;;;4995354;28;20172;-90
2022/02/05 12:26:31;;;;;;;2.00;1.90;;;10.40;99.90;;;;;;4995013;28;20672;-91
2022/02/05 12:29:00;;;;;;;4.03;2.00;;;10.40;99.90;;;;;;4995592;28;20842;-90
2022/02/05 12:31:28;;;;;;;2.33;1.30;;;10.40;99.70;;;;;;4999199;28;20231;-90
2022/02/05 12:34:08;;;;;;;1.83;1.23;;;10.40;99.10;;;;;;4997953;28;20175;-89
2022/02/05 12:36:44;;;;;;;1.88;1.08;;;10.40;99.20;;;;;;4998022;28;20227;-91
2022/02/05 12:39:16;;;;;;;1.20;1.10;;;10.30;97.80;;;;;;5015009;28;20179;-90
2022/02/05 12:41:54;;;;;;;3.65;1.00;;;10.30;97.80;;;;;;5015087;28;20172;-90
2022/02/05 12:44:26;;;;;;;6.13;1.17;;;10.30;97.20;;;;;;4999877;28;20591;-89
2022/02/05 12:47:02;;;;;;;7.70;1.92;;;10.30;96.40;;;;;;5002720;28;20202;-89
2022/02/05 12:49:34;;;;;;;2.75;1.10;;;10.30;96.30;;;;;;4997490;28;20202;-90
2022/02/05 12:52:01;;;;;;;3.33;1.25;;;10.30;96.30;;;;;;4998315;28;20279;-89
2022/02/05 12:54:29;;;;;;;3.45;1.70;;;10.20;96.00;;;;;;4997209;28;20259;-89
2022/02/05 12:56:57;;;;;;;3.33;1.02;;;10.20;96.10;;;;;;4997984;28;20219;-89
2022/02/05 12:59:38;;;;;;;2.50;1.35;;;10.20;96.00;;;;;;4997401;28;20199;-90
2022/02/05 13:02:12;;;;;;;1.75;1.30;;;10.20;96.10;;;;;;4997876;28;20226;-90
2022/02/05 13:04:41;;;;;;;8.32;2.30;;;10.20;95.60;;;;;;4997210;28;20214;-89
2022/02/05 13:07:22;;;;;;;2.80;1.70;;;10.30;95.80;;;;;;4997395;28;20188;-89
2022/02/05 13:09:55;;;;;;;3.08;2.08;;;10.30;96.00;;;;;;4996896;28;20329;-90
2022/02/05 13:12:40;;;;;;;7.05;3.45;;;10.30;95.80;;;;;;4996922;28;20283;-90
2022/02/05 13:15:34;;;;;;;5.05;4.53;;;10.40;95.70;;;;;;4998195;28;20270;-89
2022/02/05 13:34:11;;;;;;;4.95;1.50;;;10.40;95.40;;;;;;5003254;28;20580;-90
2022/02/05 13:39:29;;;;;;;1.48;1.38;;;10.30;95.20;;;;;;5001873;28;20259;-89
2022/02/05 13:42:03;;;;;;;14.15;2.95;;;10.40;95.00;;;;;;5008244;28;20187;-90
2022/02/05 13:44:56;;;;;;;3.47;1.65;;;10.30;94.50;;;;;;4997161;28;20201;-90
2022/02/05 13:47:36;;;;;;;3.13;1.65;;;10.30;94.40;;;;;;4997222;28;20179;-90
2022/02/05 13:50:14;;;;;;;2.55;1.50;;;10.30;94.40;;;;;;4996609;28;20326;-90
2022/02/05 13:52:50;;;;;;;5.63;2.88;;;10.30;94.70;;;;;;4996679;28;20666;-90
2022/02/05 13:55:29;;;;;;;6.80;4.50;;;10.30;94.60;;;;;;4996354;28;20330;-89
2022/02/05 13:58:03;;;;;;;7.57;2.53;;;10.30;94.40;;;;;;4996377;28;20179;-90
2022/02/05 14:00:50;;;;;;;10.25;6.13;;;10.30;94.40;;;;;;4995863;28;20203;-90
2022/02/05 14:03:27;;;;;;;9.13;6.45;;;10.30;94.50;;;;;;4996105;28;20540;-89
2022/02/05 14:06:10;;;;;;;2.58;2.20;;;10.30;94.80;;;;;;4995925;28;20691;-90
2022/02/05 14:08:46;;;;;;;9.55;4.30;;;10.40;95.20;;;;;;4996340;28;20296;-90
2022/02/05 14:11:33;;;;;;;5.93;3.50;;;10.40;95.00;;;;;;4996010;28;20230;-89
2022/02/05 14:14:12;;;;;;;2.55;1.83;;;10.50;95.00;;;;;;4995712;28;20267;-90
2022/02/05 14:16:40;;;;;;;7.53;2.78;;;10.60;93.80;;;;;;4999827;28;20230;-90
2022/02/05 14:19:07;;;;;;;4.22;3.03;;;10.60;93.00;;;;;;4996022;28;20227;-89
2022/02/05 14:21:47;;;;;;;4.53;2.40;;;10.50;92.50;;;;;;5005214;28;20580;-90
2022/02/05 14:24:17;;;;;;;5.82;2.90;;;10.50;92.60;;;;;;5013495;28;20226;-90
2022/02/05 14:26:54;;;;;;;4.15;2.80;;;10.50;92.90;;;;;;4999478;28;20184;-90
2022/02/05 14:29:21;;;;;;;2.38;2.17;;;10.50;93.10;;;;;;5005514;28;20260;-90
2022/02/05 14:31:53;;;;;;;2.88;2.15;;;10.50;92.50;;;;;;5010253;28;20191;-89
2022/02/05 14:42:14;;;;;;;6.80;4.40;;;10.30;91.70;;;;;;4996250;28;20672;-90
2022/02/05 14:44:41;;;;;;;6.68;3.75;;;10.30;91.60;;;;;;4996408;28;20704;-89
2022/02/05 14:47:07;;;;;;;4.63;3.35;;;10.30;91.90;;;;;;4996788;28;20184;-89
2022/02/05 14:49:34;;;;;;;8.50;4.13;;;10.20;92.00;;;;;;4995948;28;20547;-90
2022/02/05 14:52:01;;;;;;;8.00;5.07;;;10.20;92.00;;;;;;4994978;28;20187;-90
2022/02/05 14:54:33;;;;;;;8.57;6.90;;;10.20;92.00;;;;;;4995291;28;20238;-89
2022/02/05 14:57:00;;;;;;;8.95;4.70;;;10.20;92.10;;;;;;4994960;28;20718;-90
2022/02/05 14:59:25;;;;;;;10.82;3.22;;;10.20;92.30;;;;;;4995759;28;20210;-90
2022/02/05 15:01:52;;;;;;;7.93;2.70;;;10.10;92.00;;;;;;4997820;28;20184;-89
2022/02/05 15:04:17;;;;;;;2.80;2.40;;;10.10;92.20;;;;;;4993443;28;20636;-90
2022/02/05 15:06:46;;;;;;;2.70;2.50;;;10.00;92.30;;;;;;4994319;28;20234;-89
2022/02/05 15:09:12;;;;;;;3.85;2.05;;;10.00;92.40;;;;;;4993353;28;20708;-89
2022/02/05 15:11:38;;;;;;;2.88;2.10;;;9.90;92.50;;;;;;4993839;28;20598;-89
2022/02/05 15:14:05;;;;;;;6.38;2.60;;;9.90;92.50;;;;;;4994104;28;20200;-90
2022/02/05 15:16:33;;;;;;;3.22;2.85;;;9.90;92.60;;;;;;4992170;28;20316;-89
2022/02/05 15:18:59;;;;;;;3.90;2.53;;;9.90;92.50;;;;;;4992614;28;20199;-89
2022/02/05 15:21:30;;;;;;;2.70;2.35;;;9.80;92.60;;;;;;4993598;28;20254;-90
2022/02/05 15:23:57;;;;;;;2.65;2.20;;;9.80;92.50;;;;;;4994657;28;20171;-90
2022/02/05 15:26:28;;;;;;;3.20;2.40;;;9.80;92.60;;;;;;4991474;28;20218;-89
2022/02/05 15:28:55;;;;;;;5.95;3.03;;;9.70;92.50;;;;;;4993976;28;20211;-89
2022/02/05 15:31:21;;;;;;;3.88;2.90;;;9.70;92.50;;;;;;4994201;28;20294;-89
2022/02/05 15:33:50;;;;;;;3.10;1.95;;;9.70;92.70;;;;;;4994386;28;20644;-90
2022/02/05 15:36:33;;;;;;;5.95;2.30;;;9.60;92.60;;;;;;4992936;28;20254;-89
2022/02/05 15:44:22;;;;;;;7.30;4.90;;;9.50;93.00;;;;;;4994366;28;20178;-90
2022/02/05 15:46:49;;;;;;;4.37;3.67;;;9.50;93.10;;;;;;4991158;28;20232;-90
2022/02/05 15:49:14;;;;;;;6.57;4.50;;;9.40;93.60;;;;;;4993471;28;20503;-90
2022/02/05 15:51:40;;;;;;;6.77;4.00;;;9.40;93.30;;;;;;4994181;28;20223;-88
2022/02/05 15:54:08;;;;;;;10.13;4.40;;;9.40;93.50;;;;;;4994328;28;20450;-89
2022/02/05 16:02:16;;;;;;;2.67;1.80;;;9.30;93.90;;;;;;4995344;28;20234;-89